sensor_id;sensor_type;location;lat;lon;timestamp;P1;durP1;ratioP1;P2;durP2;ratioP2
4355;SDS011;64374;51.482;7.408;2024-01-15T00:00:16;30.17;;;18.80;;
4355;SDS011;64374;51.482;7.408;2024-01-15T00:02:47;32.50;;;18.23;;
4355;SDS011;64374;51.482;7.408;2024-01-15T00:05:15;31.30;;;16.03;;
4355;SDS011;64374;51.482;7.408;2024-01-15T00:07:43;33.03;;;18.10;;
4355;SDS011;64374;51.482;7.408;2024-01-15T00:10:11;35.77;;;21.47;;
4355;SDS011;64374;51.482;7.408;2024-01-15T00:12:40;39.40;;;20.40;;
4355;SDS011;64374;51.482;7.408;2024-01-15T00:15:08;36.03;;;18.17;;
4355;SDS011;64374;51.482;7.408;2024-01-15T00:17:38;35.87;;;19.47;;
4355;SDS011;64374;51.482;7.408;2024-01-15T00:20:06;34.73;;;18.20;;
4355;SDS011;64374;51.482;7.408;2024-01-15T00:22:42;35.70;;;19.70;;
4355;SDS011;64374;51.482;7.408;2024-01-15T00:25:12;40.43;;;19.80;;
4355;SDS011;64374;51.482;7.408;2024-01-15T00:27:40;36.70;;;19.87;;
4355;SDS011;64374;51.482;7.408;2024-01-15T00:30:09;46.13;;;21.00;;
4355;SDS011;64374;51.482;7.408;2024-01-15T00:32:41;37.63;;;20.03;;
4355;SDS011;64374;51.482;7.408;2024-01-15T00:35:14;36.27;;;20.27;;
4355;SDS011;64374;51.482;7.408;2024-01-15T00:37:42;38.70;;;19.93;;
4355;SDS011;64374;51.482;7.408;2024-01-15T00:40:12;33.30;;;18.87;;
4355;SDS011;64374;51.482;7.408;2024-01-15T00:42:42;38.97;;;19.10;;
4355;SDS011;64374;51.482;7.408;2024-01-15T00:45:10;38.10;;;20.23;;
4355;SDS011;64374;51.482;7.408;2024-01-15T00:47:41;37.23;;;18.27;;
4355;SDS011;64374;51.482;7.408;2024-01-15T00:50:16;34.73;;;19.17;;
4355;SDS011;64374;51.482;7.408;2024-01-15T00:52:47;37.27;;;19.07;;
4355;SDS011;64374;51.482;7.408;2024-01-15T00:55:17;38.17;;;18.40;;
4355;SDS011;64374;51.482;7.408;2024-01-15T00:57:48;33.30;;;18.17;;
4355;SDS011;64374;51.482;7.408;2024-01-15T01:00:16;40.30;;;20.80;;
4355;SDS011;64374;51.482;7.408;2024-01-15T01:02:46;34.70;;;18.90;;
4355;SDS011;64374;51.482;7.408;2024-01-15T01:05:15;36.37;;;20.03;;
4355;SDS011;64374;51.482;7.408;2024-01-15T01:07:43;31.00;;;17.07;;
4355;SDS011;64374;51.482;7.408;2024-01-15T01:10:11;36.13;;;18.43;;
4355;SDS011;64374;51.482;7.408;2024-01-15T01:12:39;31.30;;;18.30;;
4355;SDS011;64374;51.482;7.408;2024-01-15T01:15:08;36.53;;;18.47;;
4355;SDS011;64374;51.482;7.408;2024-01-15T01:17:38;33.07;;;17.03;;
4355;SDS011;64374;51.482;7.408;2024-01-15T01:20:12;32.37;;;17.57;;
4355;SDS011;64374;51.482;7.408;2024-01-15T01:22:45;32.57;;;17.83;;
4355;SDS011;64374;51.482;7.408;2024-01-15T01:25:13;35.97;;;18.90;;
4355;SDS011;64374;51.482;7.408;2024-01-15T01:27:43;32.50;;;18.00;;
4355;SDS011;64374;51.482;7.408;2024-01-15T01:30:18;35.40;;;18.87;;
4355;SDS011;64374;51.482;7.408;2024-01-15T01:32:49;31.33;;;17.40;;
4355;SDS011;64374;51.482;7.408;2024-01-15T01:35:19;33.70;;;18.33;;
4355;SDS011;64374;51.482;7.408;2024-01-15T01:37:47;35.03;;;18.20;;
4355;SDS011;64374;51.482;7.408;2024-01-15T01:40:15;32.97;;;16.57;;
4355;SDS011;64374;51.482;7.408;2024-01-15T01:42:44;41.03;;;19.40;;
4355;SDS011;64374;51.482;7.408;2024-01-15T01:45:12;33.57;;;17.80;;
4355;SDS011;64374;51.482;7.408;2024-01-15T01:47:40;33.13;;;17.87;;
4355;SDS011;64374;51.482;7.408;2024-01-15T01:50:09;35.13;;;19.30;;
4355;SDS011;64374;51.482;7.408;2024-01-15T01:52:39;32.87;;;18.17;;
4355;SDS011;64374;51.482;7.408;2024-01-15T01:55:08;31.23;;;17.00;;
4355;SDS011;64374;51.482;7.408;2024-01-15T01:57:38;31.90;;;19.00;;
4355;SDS011;64374;51.482;7.408;2024-01-15T02:00:07;28.50;;;17.90;;
4355;SDS011;64374;51.482;7.408;2024-01-15T02:02:39;34.93;;;17.87;;
4355;SDS011;64374;51.482;7.408;2024-01-15T02:05:08;37.00;;;17.53;;
4355;SDS011;64374;51.482;7.408;2024-01-15T02:07:37;35.70;;;17.00;;
4355;SDS011;64374;51.482;7.408;2024-01-15T02:10:09;32.13;;;16.37;;
4355;SDS011;64374;51.482;7.408;2024-01-15T02:12:38;28.87;;;16.47;;
4355;SDS011;64374;51.482;7.408;2024-01-15T02:15:06;29.80;;;16.70;;
4355;SDS011;64374;51.482;7.408;2024-01-15T02:17:34;33.43;;;17.07;;
4355;SDS011;64374;51.482;7.408;2024-01-15T02:20:03;33.00;;;17.67;;
4355;SDS011;64374;51.482;7.408;2024-01-15T02:22:35;32.80;;;16.47;;
4355;SDS011;64374;51.482;7.408;2024-01-15T02:25:13;27.20;;;16.63;;
4355;SDS011;64374;51.482;7.408;2024-01-15T02:27:44;25.70;;;15.00;;
4355;SDS011;64374;51.482;7.408;2024-01-15T02:30:14;34.17;;;16.83;;
4355;SDS011;64374;51.482;7.408;2024-01-15T02:32:43;29.20;;;15.57;;
4355;SDS011;64374;51.482;7.408;2024-01-15T02:35:12;27.27;;;15.23;;
4355;SDS011;64374;51.482;7.408;2024-01-15T02:37:40;37.33;;;18.10;;
4355;SDS011;64374;51.482;7.408;2024-01-15T02:40:10;30.60;;;14.93;;
4355;SDS011;64374;51.482;7.408;2024-01-15T02:42:39;26.93;;;15.20;;
4355;SDS011;64374;51.482;7.408;2024-01-15T02:45:07;29.40;;;15.50;;
4355;SDS011;64374;51.482;7.408;2024-01-15T02:47:43;27.47;;;15.00;;
4355;SDS011;64374;51.482;7.408;2024-01-15T02:50:12;28.20;;;15.70;;
4355;SDS011;64374;51.482;7.408;2024-01-15T02:52:43;27.47;;;15.73;;
4355;SDS011;64374;51.482;7.408;2024-01-15T02:55:12;27.23;;;16.17;;
4355;SDS011;64374;51.482;7.408;2024-01-15T02:57:40;25.40;;;14.20;;
4355;SDS011;64374;51.482;7.408;2024-01-15T03:00:09;31.07;;;16.70;;
4355;SDS011;64374;51.482;7.408;2024-01-15T03:02:38;25.40;;;14.53;;
4355;SDS011;64374;51.482;7.408;2024-01-15T03:05:14;26.77;;;15.37;;
4355;SDS011;64374;51.482;7.408;2024-01-15T03:07:42;25.10;;;14.40;;
4355;SDS011;64374;51.482;7.408;2024-01-15T03:10:15;33.37;;;16.07;;
4355;SDS011;64374;51.482;7.408;2024-01-15T03:12:43;33.57;;;16.73;;
4355;SDS011;64374;51.482;7.408;2024-01-15T03:15:11;31.73;;;15.53;;
4355;SDS011;64374;51.482;7.408;2024-01-15T03:17:41;41.23;;;15.33;;
4355;SDS011;64374;51.482;7.408;2024-01-15T03:20:10;33.03;;;15.80;;
4355;SDS011;64374;51.482;7.408;2024-01-15T03:22:39;27.13;;;14.40;;
4355;SDS011;64374;51.482;7.408;2024-01-15T03:25:07;28.80;;;14.50;;
4355;SDS011;64374;51.482;7.408;2024-01-15T03:27:36;27.53;;;15.20;;
4355;SDS011;64374;51.482;7.408;2024-01-15T03:30:05;27.10;;;14.53;;
4355;SDS011;64374;51.482;7.408;2024-01-15T03:32:34;26.97;;;13.30;;
4355;SDS011;64374;51.482;7.408;2024-01-15T03:35:03;25.57;;;13.50;;
4355;SDS011;64374;51.482;7.408;2024-01-15T03:37:32;21.53;;;12.23;;
4355;SDS011;64374;51.482;7.408;2024-01-15T03:40:02;26.80;;;13.43;;
4355;SDS011;64374;51.482;7.408;2024-01-15T03:42:34;25.63;;;12.77;;
4355;SDS011;64374;51.482;7.408;2024-01-15T03:45:04;21.27;;;11.00;;
4355;SDS011;64374;51.482;7.408;2024-01-15T03:47:33;21.03;;;11.77;;
4355;SDS011;64374;51.482;7.408;2024-01-15T03:50:01;30.53;;;13.30;;
4355;SDS011;64374;51.482;7.408;2024-01-15T03:52:29;22.17;;;12.37;;
4355;SDS011;64374;51.482;7.408;2024-01-15T03:54:57;24.80;;;15.43;;
4355;SDS011;64374;51.482;7.408;2024-01-15T03:57:25;34.13;;;15.60;;
4355;SDS011;64374;51.482;7.408;2024-01-15T03:59:56;38.20;;;16.73;;
4355;SDS011;64374;51.482;7.408;2024-01-15T04:02:31;25.90;;;14.03;;
4355;SDS011;64374;51.482;7.408;2024-01-15T04:04:59;25.50;;;14.00;;
4355;SDS011;64374;51.482;7.408;2024-01-15T04:07:27;25.80;;;12.40;;
4355;SDS011;64374;51.482;7.408;2024-01-15T04:09:55;24.63;;;14.53;;
4355;SDS011;64374;51.482;7.408;2024-01-15T04:12:24;23.57;;;13.70;;
4355;SDS011;64374;51.482;7.408;2024-01-15T04:14:52;26.93;;;14.00;;
4355;SDS011;64374;51.482;7.408;2024-01-15T04:17:22;21.73;;;13.60;;
4355;SDS011;64374;51.482;7.408;2024-01-15T04:19:54;25.20;;;13.30;;
4355;SDS011;64374;51.482;7.408;2024-01-15T04:22:24;26.00;;;12.37;;
4355;SDS011;64374;51.482;7.408;2024-01-15T04:24:55;24.90;;;12.07;;
4355;SDS011;64374;51.482;7.408;2024-01-15T04:27:24;23.10;;;10.90;;
4355;SDS011;64374;51.482;7.408;2024-01-15T04:29:52;25.40;;;13.60;;
4355;SDS011;64374;51.482;7.408;2024-01-15T04:32:20;22.73;;;12.60;;
4355;SDS011;64374;51.482;7.408;2024-01-15T04:34:48;25.77;;;11.30;;
4355;SDS011;64374;51.482;7.408;2024-01-15T04:37:18;26.63;;;12.87;;
4355;SDS011;64374;51.482;7.408;2024-01-15T04:39:48;19.37;;;12.37;;
4355;SDS011;64374;51.482;7.408;2024-01-15T04:42:23;16.17;;;10.87;;
4355;SDS011;64374;51.482;7.408;2024-01-15T04:44:51;21.17;;;13.00;;
4355;SDS011;64374;51.482;7.408;2024-01-15T04:47:19;22.93;;;13.70;;
4355;SDS011;64374;51.482;7.408;2024-01-15T04:49:48;23.83;;;11.93;;
4355;SDS011;64374;51.482;7.408;2024-01-15T04:52:18;20.90;;;11.80;;
4355;SDS011;64374;51.482;7.408;2024-01-15T04:54:54;16.83;;;10.83;;
4355;SDS011;64374;51.482;7.408;2024-01-15T04:57:23;28.23;;;11.37;;
4355;SDS011;64374;51.482;7.408;2024-01-15T04:59:51;24.00;;;12.13;;
4355;SDS011;64374;51.482;7.408;2024-01-15T05:02:20;17.90;;;11.43;;
4355;SDS011;64374;51.482;7.408;2024-01-15T05:04:50;16.33;;;10.57;;
4355;SDS011;64374;51.482;7.408;2024-01-15T05:07:20;22.17;;;12.43;;
4355;SDS011;64374;51.482;7.408;2024-01-15T05:09:48;20.17;;;11.87;;
4355;SDS011;64374;51.482;7.408;2024-01-15T05:12:16;24.50;;;12.00;;
4355;SDS011;64374;51.482;7.408;2024-01-15T05:14:44;25.93;;;12.10;;
4355;SDS011;64374;51.482;7.408;2024-01-15T05:17:13;19.30;;;11.60;;
4355;SDS011;64374;51.482;7.408;2024-01-15T05:19:41;21.20;;;11.37;;
4355;SDS011;64374;51.482;7.408;2024-01-15T05:22:12;17.03;;;11.70;;
4355;SDS011;64374;51.482;7.408;2024-01-15T05:24:43;24.90;;;12.43;;
4355;SDS011;64374;51.482;7.408;2024-01-15T05:27:14;21.60;;;12.00;;
4355;SDS011;64374;51.482;7.408;2024-01-15T05:29:43;30.13;;;13.10;;
4355;SDS011;64374;51.482;7.408;2024-01-15T05:32:13;22.50;;;11.80;;
4355;SDS011;64374;51.482;7.408;2024-01-15T05:34:41;23.30;;;12.27;;
4355;SDS011;64374;51.482;7.408;2024-01-15T05:37:10;20.80;;;12.80;;
4355;SDS011;64374;51.482;7.408;2024-01-15T05:39:38;22.90;;;10.20;;
4355;SDS011;64374;51.482;7.408;2024-01-15T05:42:08;27.03;;;12.73;;
4355;SDS011;64374;51.482;7.408;2024-01-15T05:44:36;22.37;;;11.77;;
4355;SDS011;64374;51.482;7.408;2024-01-15T05:47:04;22.93;;;12.10;;
4355;SDS011;64374;51.482;7.408;2024-01-15T05:49:35;20.77;;;12.87;;
4355;SDS011;64374;51.482;7.408;2024-01-15T05:52:06;23.93;;;11.53;;
4355;SDS011;64374;51.482;7.408;2024-01-15T05:54:34;23.83;;;11.90;;
4355;SDS011;64374;51.482;7.408;2024-01-15T05:57:02;23.13;;;12.67;;
4355;SDS011;64374;51.482;7.408;2024-01-15T05:59:32;30.50;;;12.93;;
4355;SDS011;64374;51.482;7.408;2024-01-15T06:02:02;20.13;;;13.57;;
4355;SDS011;64374;51.482;7.408;2024-01-15T06:04:31;23.17;;;11.30;;
4355;SDS011;64374;51.482;7.408;2024-01-15T06:06:59;26.03;;;12.23;;
4355;SDS011;64374;51.482;7.408;2024-01-15T06:09:28;22.97;;;11.77;;
4355;SDS011;64374;51.482;7.408;2024-01-15T06:11:58;24.13;;;12.40;;
4355;SDS011;64374;51.482;7.408;2024-01-15T06:14:29;18.77;;;12.03;;
4355;SDS011;64374;51.482;7.408;2024-01-15T06:16:58;24.20;;;13.00;;
4355;SDS011;64374;51.482;7.408;2024-01-15T06:19:28;23.00;;;12.50;;
4355;SDS011;64374;51.482;7.408;2024-01-15T06:22:02;19.50;;;11.23;;
4355;SDS011;64374;51.482;7.408;2024-01-15T06:24:30;19.07;;;12.20;;
4355;SDS011;64374;51.482;7.408;2024-01-15T06:26:58;21.90;;;11.67;;
4355;SDS011;64374;51.482;7.408;2024-01-15T06:29:29;20.17;;;11.50;;
4355;SDS011;64374;51.482;7.408;2024-01-15T06:32:00;19.03;;;10.87;;
4355;SDS011;64374;51.482;7.408;2024-01-15T06:34:28;23.03;;;10.93;;
4355;SDS011;64374;51.482;7.408;2024-01-15T06:36:57;19.33;;;10.60;;
4355;SDS011;64374;51.482;7.408;2024-01-15T06:39:25;28.67;;;12.10;;
4355;SDS011;64374;51.482;7.408;2024-01-15T06:41:53;25.10;;;11.90;;
4355;SDS011;64374;51.482;7.408;2024-01-15T06:44:21;19.07;;;11.87;;
4355;SDS011;64374;51.482;7.408;2024-01-15T06:46:49;22.23;;;12.57;;
4355;SDS011;64374;51.482;7.408;2024-01-15T06:49:19;26.00;;;12.53;;
4355;SDS011;64374;51.482;7.408;2024-01-15T06:51:47;28.23;;;11.90;;
4355;SDS011;64374;51.482;7.408;2024-01-15T06:54:19;16.80;;;11.80;;
4355;SDS011;64374;51.482;7.408;2024-01-15T06:56:47;24.33;;;11.73;;
4355;SDS011;64374;51.482;7.408;2024-01-15T06:59:15;20.67;;;11.53;;
4355;SDS011;64374;51.482;7.408;2024-01-15T07:01:45;17.27;;;11.10;;
4355;SDS011;64374;51.482;7.408;2024-01-15T07:04:14;17.73;;;12.27;;
4355;SDS011;64374;51.482;7.408;2024-01-15T07:06:43;17.50;;;10.67;;
4355;SDS011;64374;51.482;7.408;2024-01-15T07:09:12;18.07;;;12.00;;
4355;SDS011;64374;51.482;7.408;2024-01-15T07:11:43;21.67;;;12.33;;
4355;SDS011;64374;51.482;7.408;2024-01-15T07:14:12;20.97;;;12.43;;
4355;SDS011;64374;51.482;7.408;2024-01-15T07:16:40;17.73;;;11.50;;
4355;SDS011;64374;51.482;7.408;2024-01-15T07:19:13;27.00;;;11.00;;
4355;SDS011;64374;51.482;7.408;2024-01-15T07:24:13;17.53;;;10.33;;
4355;SDS011;64374;51.482;7.408;2024-01-15T07:26:41;18.38;;;14.00;;
4355;SDS011;64374;51.482;7.408;2024-01-15T07:29:09;25.38;;;13.27;;
4355;SDS011;64374;51.482;7.408;2024-01-15T07:31:37;19.08;;;12.35;;
4355;SDS011;64374;51.482;7.408;2024-01-15T07:34:06;14.27;;;12.23;;
4355;SDS011;64374;51.482;7.408;2024-01-15T07:36:36;14.55;;;11.55;;
4355;SDS011;64374;51.482;7.408;2024-01-15T07:39:06;11.73;;;10.50;;
4355;SDS011;64374;51.482;7.408;2024-01-15T07:41:34;16.85;;;10.23;;
4355;SDS011;64374;51.482;7.408;2024-01-15T07:44:03;14.20;;;10.07;;
4355;SDS011;64374;51.482;7.408;2024-01-15T07:46:33;13.43;;;10.60;;
4355;SDS011;64374;51.482;7.408;2024-01-15T07:49:01;9.77;;;8.77;;
4355;SDS011;64374;51.482;7.408;2024-01-15T07:51:30;12.33;;;9.00;;
4355;SDS011;64374;51.482;7.408;2024-01-15T07:53:58;9.95;;;7.60;;
4355;SDS011;64374;51.482;7.408;2024-01-15T07:56:28;11.35;;;7.70;;
4355;SDS011;64374;51.482;7.408;2024-01-15T07:58:56;8.40;;;6.20;;
4355;SDS011;64374;51.482;7.408;2024-01-15T08:01:24;6.97;;;6.03;;
4355;SDS011;64374;51.482;7.408;2024-01-15T10:03:19;10.73;;;6.70;;
4355;SDS011;64374;51.482;7.408;2024-01-15T10:05:48;7.90;;;6.70;;
4355;SDS011;64374;51.482;7.408;2024-01-15T10:08:17;8.37;;;6.73;;
4355;SDS011;64374;51.482;7.408;2024-01-15T10:10:50;7.97;;;5.83;;
4355;SDS011;64374;51.482;7.408;2024-01-15T10:13:19;9.47;;;5.20;;
4355;SDS011;64374;51.482;7.408;2024-01-15T10:15:48;10.00;;;6.00;;
4355;SDS011;64374;51.482;7.408;2024-01-15T10:18:16;8.07;;;6.40;;
4355;SDS011;64374;51.482;7.408;2024-01-15T10:20:45;10.73;;;6.40;;
4355;SDS011;64374;51.482;7.408;2024-01-15T10:23:14;8.73;;;6.40;;
4355;SDS011;64374;51.482;7.408;2024-01-15T10:25:42;10.13;;;7.20;;
4355;SDS011;64374;51.482;7.408;2024-01-15T10:28:14;10.30;;;7.53;;
4355;SDS011;64374;51.482;7.408;2024-01-15T10:30:42;8.10;;;6.37;;
4355;SDS011;64374;51.482;7.408;2024-01-15T10:33:10;11.60;;;6.10;;
4355;SDS011;64374;51.482;7.408;2024-01-15T10:35:40;9.20;;;6.77;;
4355;SDS011;64374;51.482;7.408;2024-01-15T10:38:08;9.07;;;6.50;;
4355;SDS011;64374;51.482;7.408;2024-01-15T10:40:36;10.07;;;6.23;;
4355;SDS011;64374;51.482;7.408;2024-01-15T10:43:07;8.10;;;6.87;;
4355;SDS011;64374;51.482;7.408;2024-01-15T10:45:36;9.80;;;7.43;;
4355;SDS011;64374;51.482;7.408;2024-01-15T10:48:04;10.50;;;7.60;;
4355;SDS011;64374;51.482;7.408;2024-01-15T10:50:34;9.87;;;6.90;;
4355;SDS011;64374;51.482;7.408;2024-01-15T10:53:03;13.47;;;7.80;;
4355;SDS011;64374;51.482;7.408;2024-01-15T10:55:32;11.47;;;7.80;;
4355;SDS011;64374;51.482;7.408;2024-01-15T10:58:02;11.70;;;8.30;;
4355;SDS011;64374;51.482;7.408;2024-01-15T11:00:31;7.73;;;6.77;;
4355;SDS011;64374;51.482;7.408;2024-01-15T11:03:01;12.80;;;7.53;;
4355;SDS011;64374;51.482;7.408;2024-01-15T11:05:32;9.33;;;6.47;;
4355;SDS011;64374;51.482;7.408;2024-01-15T11:08:00;9.70;;;7.17;;
4355;SDS011;64374;51.482;7.408;2024-01-15T11:10:38;10.67;;;7.33;;
4355;SDS011;64374;51.482;7.408;2024-01-15T11:13:08;9.63;;;6.97;;
4355;SDS011;64374;51.482;7.408;2024-01-15T11:18:28;7.80;;;6.30;;
4355;SDS011;64374;51.482;7.408;2024-01-15T11:23:55;10.27;;;6.80;;
4355;SDS011;64374;51.482;7.408;2024-01-15T11:26:28;8.63;;;6.63;;
4355;SDS011;64374;51.482;7.408;2024-01-15T11:29:04;9.83;;;7.33;;
4355;SDS011;64374;51.482;7.408;2024-01-15T11:40:37;13.70;;;7.30;;
4355;SDS011;64374;51.482;7.408;2024-01-15T11:43:11;9.43;;;6.93;;
4355;SDS011;64374;51.482;7.408;2024-01-15T11:45:43;11.20;;;6.20;;
4355;SDS011;64374;51.482;7.408;2024-01-15T11:48:12;12.27;;;7.30;;
4355;SDS011;64374;51.482;7.408;2024-01-15T11:50:45;10.87;;;6.53;;
4355;SDS011;64374;51.482;7.408;2024-01-15T11:53:25;10.53;;;6.27;;
4355;SDS011;64374;51.482;7.408;2024-01-15T11:56:09;9.07;;;5.73;;
4355;SDS011;64374;51.482;7.408;2024-01-15T11:58:42;8.50;;;5.23;;
4355;SDS011;64374;51.482;7.408;2024-01-15T12:01:11;13.07;;;5.60;;
4355;SDS011;64374;51.482;7.408;2024-01-15T12:03:39;8.13;;;5.53;;
4355;SDS011;64374;51.482;7.408;2024-01-15T12:06:09;10.40;;;5.63;;
4355;SDS011;64374;51.482;7.408;2024-01-15T12:08:38;9.67;;;4.87;;
4355;SDS011;64374;51.482;7.408;2024-01-15T12:11:16;7.50;;;5.40;;
4355;SDS011;64374;51.482;7.408;2024-01-15T12:13:48;5.97;;;4.10;;
4355;SDS011;64374;51.482;7.408;2024-01-15T12:16:18;6.23;;;4.57;;
4355;SDS011;64374;51.482;7.408;2024-01-15T12:18:46;5.90;;;4.17;;
4355;SDS011;64374;51.482;7.408;2024-01-15T12:21:16;9.87;;;4.17;;
4355;SDS011;64374;51.482;7.408;2024-01-15T12:23:46;5.67;;;3.20;;
4355;SDS011;64374;51.482;7.408;2024-01-15T12:26:21;4.90;;;4.40;;
4355;SDS011;64374;51.482;7.408;2024-01-15T12:28:50;7.50;;;3.87;;
4355;SDS011;64374;51.482;7.408;2024-01-15T12:31:22;6.93;;;3.80;;
4355;SDS011;64374;51.482;7.408;2024-01-15T15:20:56;7.20;;;3.23;;
4355;SDS011;64374;51.482;7.408;2024-01-15T15:23:26;8.43;;;4.50;;
4355;SDS011;64374;51.482;7.408;2024-01-15T15:25:55;9.30;;;4.80;;
4355;SDS011;64374;51.482;7.408;2024-01-15T15:28:23;6.95;;;4.40;;
4355;SDS011;64374;51.482;7.408;2024-01-15T15:30:53;6.97;;;4.30;;
4355;SDS011;64374;51.482;7.408;2024-01-15T15:33:23;8.48;;;4.85;;
4355;SDS011;64374;51.482;7.408;2024-01-15T15:35:52;11.63;;;4.50;;
4355;SDS011;64374;51.482;7.408;2024-01-15T15:38:20;9.60;;;4.13;;
4355;SDS011;64374;51.482;7.408;2024-01-15T15:40:53;9.40;;;4.50;;
4355;SDS011;64374;51.482;7.408;2024-01-15T15:43:29;7.97;;;3.80;;
4355;SDS011;64374;51.482;7.408;2024-01-15T15:46:00;10.48;;;3.50;;
4355;SDS011;64374;51.482;7.408;2024-01-15T15:48:30;8.85;;;4.10;;
4355;SDS011;64374;51.482;7.408;2024-01-15T15:51:04;8.10;;;3.55;;
4355;SDS011;64374;51.482;7.408;2024-01-15T15:53:35;8.25;;;3.88;;
4355;SDS011;64374;51.482;7.408;2024-01-15T15:56:07;6.57;;;3.95;;
4355;SDS011;64374;51.482;7.408;2024-01-15T15:58:36;7.45;;;4.10;;
4355;SDS011;64374;51.482;7.408;2024-01-15T16:01:04;9.50;;;4.60;;
4355;SDS011;64374;51.482;7.408;2024-01-15T16:03:33;6.68;;;3.40;;
4355;SDS011;64374;51.482;7.408;2024-01-15T16:06:01;6.10;;;4.00;;
4355;SDS011;64374;51.482;7.408;2024-01-15T16:08:37;6.10;;;4.20;;
4355;SDS011;64374;51.482;7.408;2024-01-15T16:11:09;6.25;;;3.80;;
4355;SDS011;64374;51.482;7.408;2024-01-15T16:13:37;8.02;;;3.85;;
4355;SDS011;64374;51.482;7.408;2024-01-15T16:16:05;5.80;;;3.80;;
4355;SDS011;64374;51.482;7.408;2024-01-15T16:18:58;6.63;;;4.03;;
4355;SDS011;64374;51.482;7.408;2024-01-15T16:21:46;7.25;;;4.22;;
4355;SDS011;64374;51.482;7.408;2024-01-15T16:24:35;7.55;;;4.30;;
4355;SDS011;64374;51.482;7.408;2024-01-15T16:27:18;6.47;;;4.10;;
4355;SDS011;64374;51.482;7.408;2024-01-15T16:29:46;7.65;;;4.40;;
4355;SDS011;64374;51.482;7.408;2024-01-15T16:32:14;8.20;;;4.72;;
4355;SDS011;64374;51.482;7.408;2024-01-15T16:34:45;6.87;;;4.40;;
4355;SDS011;64374;51.482;7.408;2024-01-15T16:37:13;6.38;;;4.50;;
4355;SDS011;64374;51.482;7.408;2024-01-15T16:39:42;5.57;;;4.25;;
4355;SDS011;64374;51.482;7.408;2024-01-15T16:42:11;8.57;;;4.60;;
4355;SDS011;64374;51.482;7.408;2024-01-15T16:44:40;7.33;;;4.70;;
4355;SDS011;64374;51.482;7.408;2024-01-15T16:47:11;8.18;;;5.63;;
4355;SDS011;64374;51.482;7.408;2024-01-15T16:49:39;9.00;;;5.95;;
4355;SDS011;64374;51.482;7.408;2024-01-15T16:52:09;7.07;;;5.93;;
4355;SDS011;64374;51.482;7.408;2024-01-15T16:54:38;9.43;;;7.28;;
4355;SDS011;64374;51.482;7.408;2024-01-15T16:57:07;12.93;;;8.20;;
4355;SDS011;64374;51.482;7.408;2024-01-15T16:59:37;15.65;;;10.52;;
4355;SDS011;64374;51.482;7.408;2024-01-15T17:02:09;12.43;;;8.35;;
4355;SDS011;64374;51.482;7.408;2024-01-15T17:04:37;12.18;;;9.07;;
4355;SDS011;64374;51.482;7.408;2024-01-15T17:07:08;12.98;;;9.50;;
4355;SDS011;64374;51.482;7.408;2024-01-15T17:09:44;11.38;;;9.23;;
4355;SDS011;64374;51.482;7.408;2024-01-15T17:12:12;11.70;;;8.50;;
4355;SDS011;64374;51.482;7.408;2024-01-15T17:14:41;10.35;;;8.68;;
4355;SDS011;64374;51.482;7.408;2024-01-15T17:17:10;12.98;;;8.90;;
4355;SDS011;64374;51.482;7.408;2024-01-15T17:19:39;13.35;;;9.30;;
4355;SDS011;64374;51.482;7.408;2024-01-15T17:22:16;13.95;;;9.05;;
4355;SDS011;64374;51.482;7.408;2024-01-15T17:24:47;14.50;;;9.10;;
4355;SDS011;64374;51.482;7.408;2024-01-15T17:27:18;10.43;;;8.85;;
4355;SDS011;64374;51.482;7.408;2024-01-15T17:29:46;10.38;;;8.68;;
4355;SDS011;64374;51.482;7.408;2024-01-15T17:32:18;10.45;;;8.00;;
4355;SDS011;64374;51.482;7.408;2024-01-15T17:34:47;11.25;;;7.60;;
4355;SDS011;64374;51.482;7.408;2024-01-15T17:37:16;10.38;;;8.05;;
4355;SDS011;64374;51.482;7.408;2024-01-15T17:39:44;13.05;;;8.27;;
4355;SDS011;64374;51.482;7.408;2024-01-15T17:42:21;9.40;;;7.28;;
4355;SDS011;64374;51.482;7.408;2024-01-15T17:44:50;13.82;;;7.72;;
4355;SDS011;64374;51.482;7.408;2024-01-15T17:47:22;12.65;;;7.22;;
4355;SDS011;64374;51.482;7.408;2024-01-15T17:49:53;8.13;;;7.00;;
4355;SDS011;64374;51.482;7.408;2024-01-15T17:52:25;11.82;;;7.63;;
4355;SDS011;64374;51.482;7.408;2024-01-15T17:54:56;11.95;;;7.28;;
4355;SDS011;64374;51.482;7.408;2024-01-15T17:57:24;12.48;;;6.68;;
4355;SDS011;64374;51.482;7.408;2024-01-15T17:59:55;12.90;;;6.77;;
4355;SDS011;64374;51.482;7.408;2024-01-15T18:02:25;13.90;;;8.23;;
4355;SDS011;64374;51.482;7.408;2024-01-15T18:04:55;12.23;;;6.70;;
4355;SDS011;64374;51.482;7.408;2024-01-15T18:07:23;14.25;;;8.23;;
4355;SDS011;64374;51.482;7.408;2024-01-15T18:09:52;10.45;;;7.07;;
4355;SDS011;64374;51.482;7.408;2024-01-15T18:12:30;10.63;;;6.80;;
4355;SDS011;64374;51.482;7.408;2024-01-15T18:14:59;10.63;;;7.10;;
4355;SDS011;64374;51.482;7.408;2024-01-15T18:17:29;9.52;;;6.85;;
4355;SDS011;64374;51.482;7.408;2024-01-15T18:19:59;12.38;;;7.68;;
4355;SDS011;64374;51.482;7.408;2024-01-15T18:22:30;14.27;;;7.00;;
4355;SDS011;64374;51.482;7.408;2024-01-15T18:25:01;12.05;;;7.40;;
4355;SDS011;64374;51.482;7.408;2024-01-15T18:27:29;9.85;;;7.20;;
4355;SDS011;64374;51.482;7.408;2024-01-15T18:29:57;13.10;;;7.60;;
4355;SDS011;64374;51.482;7.408;2024-01-15T18:32:25;12.40;;;7.20;;
4355;SDS011;64374;51.482;7.408;2024-01-15T18:34:55;12.32;;;7.03;;
4355;SDS011;64374;51.482;7.408;2024-01-15T18:37:24;8.93;;;6.57;;
4355;SDS011;64374;51.482;7.408;2024-01-15T18:39:54;11.40;;;7.50;;
4355;SDS011;64374;51.482;7.408;2024-01-15T18:42:25;16.43;;;7.90;;
4355;SDS011;64374;51.482;7.408;2024-01-15T18:44:53;10.77;;;7.10;;
4355;SDS011;64374;51.482;7.408;2024-01-15T18:47:22;10.95;;;6.88;;
4355;SDS011;64374;51.482;7.408;2024-01-15T18:49:50;14.63;;;7.40;;
4355;SDS011;64374;51.482;7.408;2024-01-15T18:52:19;12.70;;;7.07;;
4355;SDS011;64374;51.482;7.408;2024-01-15T18:54:50;9.98;;;6.60;;
4355;SDS011;64374;51.482;7.408;2024-01-15T18:57:22;13.40;;;7.13;;
4355;SDS011;64374;51.482;7.408;2024-01-15T18:59:56;10.23;;;6.78;;
4355;SDS011;64374;51.482;7.408;2024-01-15T19:02:27;12.55;;;6.50;;
4355;SDS011;64374;51.482;7.408;2024-01-15T19:04:56;11.80;;;6.50;;
4355;SDS011;64374;51.482;7.408;2024-01-15T19:07:26;9.60;;;6.07;;
4355;SDS011;64374;51.482;7.408;2024-01-15T19:09:54;9.85;;;6.28;;
4355;SDS011;64374;51.482;7.408;2024-01-15T19:12:22;14.13;;;6.07;;
4355;SDS011;64374;51.482;7.408;2024-01-15T19:14:52;11.68;;;6.68;;
4355;SDS011;64374;51.482;7.408;2024-01-15T19:17:24;14.13;;;7.20;;
4355;SDS011;64374;51.482;7.408;2024-01-15T19:20:00;13.77;;;7.70;;
4355;SDS011;64374;51.482;7.408;2024-01-15T19:22:29;11.80;;;7.40;;
4355;SDS011;64374;51.482;7.408;2024-01-15T19:24:57;16.13;;;8.37;;
4355;SDS011;64374;51.482;7.408;2024-01-15T19:27:27;12.45;;;7.75;;
4355;SDS011;64374;51.482;7.408;2024-01-15T19:29:56;17.15;;;7.80;;
4355;SDS011;64374;51.482;7.408;2024-01-15T19:32:25;13.95;;;8.05;;
4355;SDS011;64374;51.482;7.408;2024-01-15T19:34:53;15.00;;;8.45;;
4355;SDS011;64374;51.482;7.408;2024-01-15T19:37:22;17.33;;;8.60;;
4355;SDS011;64374;51.482;7.408;2024-01-15T19:39:59;11.75;;;7.20;;
4355;SDS011;64374;51.482;7.408;2024-01-15T19:42:29;15.55;;;8.07;;
4355;SDS011;64374;51.482;7.408;2024-01-15T19:44:58;12.10;;;7.55;;
4355;SDS011;64374;51.482;7.408;2024-01-15T19:47:26;12.98;;;7.00;;
4355;SDS011;64374;51.482;7.408;2024-01-15T19:49:57;12.00;;;7.80;;
4355;SDS011;64374;51.482;7.408;2024-01-15T19:52:31;11.27;;;6.40;;
4355;SDS011;64374;51.482;7.408;2024-01-15T19:55:03;11.63;;;7.10;;
4355;SDS011;64374;51.482;7.408;2024-01-15T19:57:32;14.25;;;7.57;;
4355;SDS011;64374;51.482;7.408;2024-01-15T20:00:00;12.85;;;8.20;;
4355;SDS011;64374;51.482;7.408;2024-01-15T20:02:31;14.07;;;7.78;;